createdAt,value
2023-05-08T00:01:36.206Z,54.55
2023-05-08T00:04:03.613Z,53.75
2023-05-08T00:06:31.305Z,53.73
2023-05-08T00:08:58.397Z,52.44
2023-05-08T00:11:26.582Z,52.92
2023-05-08T00:13:54.691Z,52.77
2023-05-08T00:16:21.744Z,52.79
2023-05-08T00:18:49.138Z,52.67
2023-05-08T00:21:16.358Z,52.51
2023-05-08T00:23:44.097Z,52.04
2023-05-08T00:26:11.273Z,51.50
2023-05-08T00:28:38.623Z,51.44
2023-05-08T00:31:08.488Z,51.32
2023-05-08T00:33:35.780Z,51.25
2023-05-08T00:36:04.805Z,51.04
2023-05-08T00:38:36.758Z,51.08
2023-05-08T00:41:04.586Z,52.37
2023-05-08T00:43:31.740Z,51.43
2023-05-08T00:46:01.612Z,51.16
2023-05-08T00:48:34.480Z,51.85
2023-05-08T00:51:04.887Z,51.80
2023-05-08T00:53:36.336Z,51.77
2023-05-08T00:56:05.306Z,51.63
2023-05-08T00:58:33.789Z,52.33
2023-05-08T01:01:01.935Z,52.13
2023-05-08T01:03:29.374Z,52.08
2023-05-08T01:05:56.820Z,52.27
2023-05-08T01:08:24.113Z,53.04
2023-05-08T01:11:18.647Z,53.23
2023-05-08T01:14:16.704Z,53.69
2023-05-08T01:17:09.647Z,53.22
2023-05-08T01:20:11.114Z,53.34
2023-05-08T01:22:50.742Z,53.61
2023-05-08T01:25:56.129Z,53.72
2023-05-08T01:28:32.520Z,54.29
2023-05-08T01:31:22.098Z,53.59
2023-05-08T01:34:23.214Z,53.64
2023-05-08T01:37:21.385Z,53.68
2023-05-08T01:40:03.617Z,53.48
2023-05-08T01:42:59.412Z,53.40
2023-05-08T01:45:39.591Z,53.14
2023-05-08T01:48:11.193Z,52.87
2023-05-08T01:53:29.424Z,53.59
2023-05-08T01:56:01.173Z,53.63
2023-05-08T01:58:31.151Z,53.54
2023-05-08T02:01:03.269Z,53.77
2023-05-08T02:03:34.042Z,53.52
2023-05-08T02:06:03.331Z,53.35
2023-05-08T02:08:33.698Z,53.58
2023-05-08T02:11:02.218Z,54.10
2023-05-08T02:13:32.305Z,53.81
2023-05-08T02:16:02.652Z,53.66
2023-05-08T02:18:32.363Z,53.64
2023-05-08T02:21:05.298Z,53.74
2023-05-08T02:23:35.848Z,53.68
2023-05-08T02:26:04.801Z,53.64
2023-05-08T02:28:33.621Z,53.69
2023-05-08T02:31:01.931Z,53.50
2023-05-08T02:33:33.579Z,53.35
2023-05-08T02:36:02.806Z,53.41
2023-05-08T02:38:32.259Z,52.92
2023-05-08T02:41:05.761Z,53.58
2023-05-08T02:43:32.884Z,53.61
2023-05-08T02:46:37.914Z,53.99
2023-05-08T02:49:20.567Z,53.14
2023-05-08T02:52:05.380Z,53.26
2023-05-08T02:55:05.543Z,53.25
2023-05-08T02:57:44.273Z,53.25
2023-05-08T03:03:27.597Z,53.23
2023-05-08T03:06:00.091Z,53.83
2023-05-08T03:08:34.584Z,53.39
2023-05-08T03:11:08.394Z,53.85
2023-05-08T03:13:37.167Z,53.74
2023-05-08T03:16:07.098Z,53.74
2023-05-08T03:19:00.306Z,54.13
2023-05-08T03:21:30.918Z,54.02
2023-05-08T03:24:02.409Z,54.15
2023-05-08T03:26:30.165Z,53.93
2023-05-08T03:28:59.280Z,53.65
2023-05-08T03:31:33.498Z,53.70
2023-05-08T03:34:05.540Z,53.43
2023-05-08T03:36:32.904Z,53.60
2023-05-08T03:39:01.319Z,53.90
2023-05-08T03:41:28.728Z,54.04
2023-05-08T03:43:57.394Z,53.88
2023-05-08T03:46:26.046Z,54.03
2023-05-08T03:48:54.754Z,53.76
2023-05-08T03:51:22.956Z,54.39
2023-05-08T03:53:51.326Z,54.59
2023-05-08T03:56:19.084Z,54.29
2023-05-08T03:58:53.302Z,54.77
2023-05-08T04:01:28.872Z,54.15
2023-05-08T04:04:30.549Z,54.03
2023-05-08T04:07:08.621Z,54.51
2023-05-08T04:10:07.050Z,54.27
2023-05-08T04:13:06.838Z,54.74
2023-05-08T04:15:44.075Z,54.76
2023-05-08T04:18:16.656Z,54.45
2023-05-08T04:20:48.214Z,54.50
2023-05-08T04:23:20.028Z,54.65
2023-05-08T04:25:49.822Z,54.53
2023-05-08T04:28:18.922Z,54.81
2023-05-08T04:30:47.119Z,54.48
2023-05-08T04:33:15.289Z,54.73
2023-05-08T04:35:42.622Z,54.69
2023-05-08T04:38:09.820Z,54.59
2023-05-08T04:40:37.236Z,54.56
2023-05-08T04:43:04.555Z,54.90
2023-05-08T04:45:31.855Z,55.14
2023-05-08T04:47:59.156Z,55.19
2023-05-08T04:50:26.327Z,54.83
2023-05-08T04:52:53.383Z,55.02
2023-05-08T04:55:23.345Z,54.82
2023-05-08T04:57:50.438Z,54.94
2023-05-08T05:00:18.188Z,54.70
2023-05-08T05:02:47.738Z,54.86
2023-05-08T05:05:15.247Z,55.00
2023-05-08T05:07:42.804Z,55.02
2023-05-08T05:10:11.390Z,55.65
2023-05-08T05:12:39.110Z,54.76
2023-05-08T05:15:09.120Z,55.28
2023-05-08T05:17:37.996Z,55.01
2023-05-08T05:20:07.836Z,55.08
2023-05-08T05:22:34.993Z,54.65
2023-05-08T05:25:02.150Z,55.17
2023-05-08T05:27:29.566Z,54.91
2023-05-08T05:29:58.804Z,55.10
2023-05-08T05:32:30.567Z,55.04
2023-05-08T05:34:57.988Z,55.21
2023-05-08T05:37:27.529Z,55.42
2023-05-08T05:39:55.176Z,55.46
2023-05-08T05:42:28.774Z,55.60
2023-05-08T05:44:57.119Z,55.48
2023-05-08T05:47:24.202Z,55.62
2023-05-08T05:49:52.186Z,55.03
2023-05-08T05:52:19.457Z,55.45
2023-05-08T05:54:46.911Z,55.28
2023-05-08T05:57:14.358Z,55.08
2023-05-08T05:59:42.193Z,54.96
2023-05-08T06:02:10.666Z,55.26
2023-05-08T06:04:40.996Z,54.79
2023-05-08T06:07:08.664Z,54.71
2023-05-08T06:09:36.899Z,54.46
2023-05-08T06:12:04.228Z,54.49
2023-05-08T06:14:31.389Z,54.43
2023-05-08T06:16:58.873Z,54.53
2023-05-08T06:19:26.462Z,54.35
2023-05-08T06:21:53.882Z,54.12
2023-05-08T06:24:21.117Z,53.58
2023-05-08T06:26:48.208Z,53.60
2023-05-08T06:29:15.589Z,53.69
2023-05-08T06:31:43.147Z,53.48
2023-05-08T06:34:20.662Z,52.86
2023-05-08T06:36:48.060Z,52.85
2023-05-08T06:39:17.614Z,53.25
2023-05-08T06:41:51.854Z,53.24
2023-05-08T06:44:28.469Z,53.33
2023-05-08T06:46:55.858Z,53.38
2023-05-08T06:49:23.227Z,53.22
2023-05-08T06:51:50.491Z,52.89
2023-05-08T06:54:18.122Z,53.40
2023-05-08T06:56:46.284Z,53.08
2023-05-08T06:59:13.449Z,53.19
2023-05-08T07:01:41.935Z,52.81
2023-05-08T07:04:09.116Z,53.15
2023-05-08T07:06:36.336Z,52.84
2023-05-08T07:09:03.756Z,52.63
2023-05-08T07:11:30.852Z,52.44
2023-05-08T07:13:58.027Z,51.70
2023-05-08T07:16:25.415Z,51.59
2023-05-08T07:18:52.564Z,51.46
2023-05-08T07:21:21.412Z,51.00
2023-05-08T07:23:51.836Z,51.35
2023-05-08T07:26:19.025Z,51.46
2023-05-08T07:28:46.134Z,51.20
2023-05-08T07:31:16.780Z,50.58
2023-05-08T07:33:43.999Z,50.29
2023-05-08T07:36:11.403Z,50.44
2023-05-08T07:38:38.730Z,50.11
2023-05-08T07:41:05.861Z,50.15
2023-05-08T07:43:37.466Z,49.89
2023-05-08T07:46:05.590Z,49.43
2023-05-08T07:48:32.700Z,49.08
2023-05-08T07:51:00.308Z,48.40
2023-05-08T07:53:27.806Z,47.77
2023-05-08T07:55:54.966Z,47.58
2023-05-08T07:58:23.669Z,47.50
2023-05-08T08:00:51.529Z,46.75
2023-05-08T08:03:18.789Z,46.63
2023-05-08T08:05:48.474Z,46.65
2023-05-08T08:08:15.844Z,45.90
2023-05-08T08:10:52.137Z,45.59
2023-05-08T08:13:19.318Z,45.34
2023-05-08T08:15:49.609Z,44.98
2023-05-08T08:18:18.055Z,44.62
2023-05-08T08:20:45.312Z,43.87
2023-05-08T08:23:13.465Z,43.67
2023-05-08T08:25:40.748Z,43.20
2023-05-08T08:28:08.067Z,42.80
2023-05-08T08:30:36.352Z,41.68
2023-05-08T08:33:05.401Z,41.66
2023-05-08T08:35:33.855Z,41.69
2023-05-08T08:38:01.415Z,40.72
2023-05-08T08:40:34.058Z,40.85
2023-05-08T08:43:01.240Z,39.98
2023-05-08T08:45:28.295Z,39.96
2023-05-08T08:47:58.814Z,41.49
2023-05-08T08:50:27.438Z,43.31
2023-05-08T08:53:21.769Z,43.76
2023-05-08T08:55:52.807Z,43.57
2023-05-08T08:58:48.529Z,44.28
2023-05-08T09:01:19.548Z,44.29
2023-05-08T09:03:50.091Z,44.61
2023-05-08T09:06:20.642Z,43.90
2023-05-08T09:08:47.816Z,44.05
2023-05-08T09:11:15.116Z,43.49
2023-05-08T09:13:42.403Z,43.47
2023-05-08T09:16:09.631Z,43.43
2023-05-08T09:18:39.283Z,43.64
2023-05-08T09:21:07.265Z,43.62
2023-05-08T09:23:47.358Z,43.32
2023-05-08T09:26:33.057Z,42.61
2023-05-08T09:29:20.351Z,41.55
2023-05-08T09:31:53.902Z,42.20
2023-05-08T09:34:33.822Z,41.09
2023-05-08T09:37:10.396Z,41.44
2023-05-08T09:39:39.991Z,41.70
2023-05-08T09:42:07.685Z,41.47
2023-05-08T09:44:49.959Z,41.48
2023-05-08T09:47:22.276Z,40.93
2023-05-08T09:50:01.062Z,41.27
2023-05-08T09:52:32.957Z,40.30
2023-05-08T09:55:02.604Z,39.98
2023-05-08T09:57:34.405Z,40.07
2023-05-08T10:00:08.236Z,40.43
2023-05-08T10:02:39.183Z,39.90
2023-05-08T10:05:30.326Z,38.85
2023-05-08T10:08:01.613Z,39.63
2023-05-08T10:10:33.551Z,38.85
2023-05-08T10:13:00.873Z,38.81
2023-05-08T10:15:31.785Z,38.04
2023-05-08T10:18:07.176Z,37.96
2023-05-08T10:20:40.777Z,37.76
2023-05-08T10:23:16.038Z,39.01
2023-05-08T10:25:46.459Z,38.95
2023-05-08T10:28:43.017Z,38.56
2023-05-08T10:31:14.817Z,38.90
2023-05-08T10:33:48.976Z,38.33
2023-05-08T10:36:17.071Z,39.27
2023-05-08T10:38:48.356Z,38.44
2023-05-08T10:41:16.080Z,39.29
2023-05-08T10:43:43.725Z,40.18
2023-05-08T10:46:49.661Z,39.67
2023-05-08T10:49:20.381Z,39.53
2023-05-08T10:51:53.490Z,39.87
2023-05-08T10:54:59.323Z,39.24
2023-05-08T10:57:29.802Z,38.43
2023-05-08T11:00:00.416Z,37.32
2023-05-08T11:02:35.123Z,38.10
2023-05-08T11:05:18.985Z,36.43
2023-05-08T11:08:14.778Z,36.49
2023-05-08T11:10:42.984Z,36.66
2023-05-08T11:13:12.535Z,36.39
2023-05-08T11:15:42.192Z,36.12
2023-05-08T11:18:11.784Z,36.39
2023-05-08T11:20:41.280Z,36.04
2023-05-08T11:23:42.754Z,35.24
2023-05-08T11:26:15.041Z,35.49
2023-05-08T11:28:54.712Z,36.17
2023-05-08T11:31:21.908Z,37.07
2023-05-08T11:33:49.723Z,36.29
2023-05-08T11:36:23.385Z,36.75
2023-05-08T11:39:12.873Z,35.61
2023-05-08T11:41:40.220Z,36.28
2023-05-08T11:44:20.771Z,36.77
2023-05-08T11:46:56.345Z,36.36
2023-05-08T11:49:29.562Z,37.52
2023-05-08T11:51:58.377Z,39.60
2023-05-08T11:54:29.500Z,41.67
2023-05-08T11:57:00.604Z,41.26
2023-05-08T11:59:37.881Z,42.87
2023-05-08T12:02:09.436Z,42.39
2023-05-08T12:04:46.111Z,42.66
2023-05-08T12:07:16.743Z,43.17
2023-05-08T12:09:44.208Z,40.73
2023-05-08T12:12:16.035Z,41.65
2023-05-08T12:14:58.735Z,41.95
2023-05-08T12:17:26.021Z,40.98
2023-05-08T12:19:56.902Z,40.47
2023-05-08T12:22:28.156Z,40.33
2023-05-08T12:24:58.900Z,40.88
2023-05-08T12:27:29.600Z,40.26
2023-05-08T12:29:58.095Z,39.11
2023-05-08T12:32:26.650Z,38.33
2023-05-08T12:34:56.046Z,38.69
2023-05-08T12:37:29.745Z,38.18
2023-05-08T12:39:57.887Z,37.70
2023-05-08T12:42:42.936Z,36.46
2023-05-08T12:45:28.342Z,36.58
2023-05-08T12:48:04.407Z,37.54
2023-05-08T12:50:39.009Z,36.63
2023-05-08T12:53:11.340Z,37.70
2023-05-08T12:55:41.595Z,37.68
2023-05-08T12:58:15.031Z,36.89
2023-05-08T13:00:47.589Z,36.53
2023-05-08T13:03:24.176Z,35.15
2023-05-08T13:05:53.087Z,35.91
2023-05-08T13:08:30.399Z,35.09
2023-05-08T13:10:57.648Z,35.16
2023-05-08T13:13:28.372Z,35.50
2023-05-08T13:15:56.294Z,34.41
2023-05-08T13:18:28.059Z,33.66
2023-05-08T13:20:56.526Z,34.07
2023-05-08T13:23:24.700Z,33.00
2023-05-08T13:25:54.204Z,33.25
2023-05-08T13:28:26.677Z,32.56
2023-05-08T13:30:53.822Z,32.11
2023-05-08T13:33:21.023Z,33.13
2023-05-08T13:35:51.252Z,33.22
2023-05-08T13:38:24.425Z,34.24
2023-05-08T13:40:54.729Z,33.59
2023-05-08T13:43:23.270Z,33.66
2023-05-08T13:45:54.277Z,34.43
2023-05-08T13:48:21.668Z,34.41
2023-05-08T13:51:02.929Z,35.86
2023-05-08T13:53:37.050Z,35.33
2023-05-08T13:56:04.407Z,35.57
2023-05-08T13:58:34.706Z,35.31
2023-05-08T14:01:25.081Z,36.66
2023-05-08T14:03:58.500Z,37.68
2023-05-08T14:06:31.056Z,38.01
2023-05-08T14:08:58.587Z,38.21
2023-05-08T14:14:32.221Z,38.80
2023-05-08T14:17:08.352Z,38.55
2023-05-08T14:19:42.970Z,39.20
2023-05-08T14:22:10.388Z,39.80
2023-05-08T14:24:38.346Z,40.70
2023-05-08T14:27:06.422Z,41.58
2023-05-08T14:29:34.418Z,41.98
2023-05-08T14:32:01.960Z,41.41
2023-05-08T14:34:29.215Z,42.10
2023-05-08T14:36:56.643Z,41.29
2023-05-08T14:39:23.771Z,41.48
2023-05-08T14:42:14.264Z,40.95
2023-05-08T14:44:38.454Z,41.28
2023-05-08T14:47:10.458Z,41.68
2023-05-08T14:49:38.950Z,41.54
2023-05-08T14:52:07.575Z,41.15
2023-05-08T14:54:34.917Z,40.67
2023-05-08T14:57:02.405Z,40.30
2023-05-08T14:59:32.379Z,39.91
2023-05-08T15:01:59.922Z,39.92
2023-05-08T15:04:27.396Z,39.90
2023-05-08T15:06:55.478Z,39.31
2023-05-08T15:09:25.858Z,39.34
2023-05-08T15:11:53.233Z,39.11
2023-05-08T15:14:20.325Z,38.27
2023-05-08T15:16:47.486Z,38.68
2023-05-08T15:19:14.880Z,38.29
2023-05-08T15:21:42.057Z,37.67
2023-05-08T15:24:09.556Z,37.31
2023-05-08T15:26:36.829Z,37.32
2023-05-08T15:29:03.956Z,36.99
2023-05-08T15:31:31.550Z,37.06
2023-05-08T15:33:59.178Z,37.25
2023-05-08T15:36:28.541Z,37.76
2023-05-08T15:38:55.948Z,38.63
2023-05-08T15:41:23.158Z,39.77
2023-05-08T15:43:50.208Z,40.09
2023-05-08T15:46:17.657Z,40.68
2023-05-08T15:48:44.812Z,40.16
2023-05-08T15:51:13.338Z,40.37
2023-05-08T15:53:41.833Z,40.00
2023-05-08T15:56:10.985Z,40.84
2023-05-08T15:58:39.234Z,43.52
2023-05-08T16:01:06.552Z,43.92
2023-05-08T16:03:34.306Z,43.97
2023-05-08T16:06:01.753Z,42.78
2023-05-08T16:08:31.133Z,41.85
2023-05-08T16:10:58.281Z,42.81
2023-05-08T16:13:25.646Z,41.75
2023-05-08T16:15:52.905Z,44.44
2023-05-08T16:18:23.432Z,43.52
2023-05-08T16:20:50.714Z,43.92
2023-05-08T16:23:17.711Z,45.60
2023-05-08T16:25:44.758Z,44.76
2023-05-08T16:28:14.264Z,44.89
2023-05-08T16:30:44.597Z,44.10
2023-05-08T16:33:12.945Z,43.21
2023-05-08T16:35:43.301Z,43.94
2023-05-08T16:38:10.657Z,44.67
2023-05-08T16:40:38.025Z,43.48
2023-05-08T16:43:05.323Z,44.06
2023-05-08T16:45:34.663Z,44.50
2023-05-08T16:48:05.161Z,43.63
2023-05-08T16:50:32.474Z,42.15
2023-05-08T16:52:59.761Z,42.43
2023-05-08T16:55:27.517Z,42.41
2023-05-08T16:57:54.777Z,42.67
2023-05-08T17:00:23.021Z,41.73
2023-05-08T17:02:50.653Z,42.42
2023-05-08T17:05:18.387Z,43.12
2023-05-08T17:07:45.829Z,43.98
2023-05-08T17:10:15.430Z,44.61
2023-05-08T17:12:42.534Z,44.75
2023-05-08T17:15:10.022Z,45.76
2023-05-08T17:17:37.339Z,45.87
2023-05-08T17:20:13.505Z,46.72
2023-05-08T17:22:43.948Z,46.08
2023-05-08T17:25:11.355Z,46.31
2023-05-08T17:27:39.242Z,46.40
2023-05-08T17:30:08.685Z,47.51
2023-05-08T17:32:36.468Z,47.62
2023-05-08T17:35:04.245Z,47.50
2023-05-08T17:37:33.180Z,46.67
2023-05-08T17:40:06.524Z,47.88
2023-05-08T17:42:34.157Z,47.81
2023-05-08T17:45:05.096Z,47.10
2023-05-08T17:47:32.708Z,47.00
2023-05-08T17:49:59.881Z,46.48
2023-05-08T17:52:27.108Z,46.39
2023-05-08T17:54:54.571Z,47.06
2023-05-08T17:57:25.094Z,47.01
2023-05-08T17:59:52.513Z,46.54
2023-05-08T18:02:19.759Z,46.65
2023-05-08T18:04:47.096Z,46.16
2023-05-08T18:07:14.310Z,46.21
2023-05-08T18:09:41.587Z,46.46
2023-05-08T18:12:08.804Z,45.69
2023-05-08T18:14:36.312Z,46.52
2023-05-08T18:17:03.726Z,46.20
2023-05-08T18:19:32.137Z,46.86
2023-05-08T18:21:59.296Z,47.38
2023-05-08T18:24:29.588Z,48.00
2023-05-08T18:26:58.102Z,49.25
2023-05-08T18:29:28.607Z,48.59
2023-05-08T18:31:57.389Z,48.63
2023-05-08T18:34:25.012Z,49.86
2023-05-08T18:36:57.514Z,49.65
2023-05-08T18:39:25.760Z,49.93
2023-05-08T18:42:03.955Z,49.99
2023-05-08T18:44:31.280Z,49.61
2023-05-08T18:47:01.000Z,50.88
2023-05-08T18:49:28.441Z,51.47
2023-05-08T18:51:55.691Z,51.33
2023-05-08T18:54:27.016Z,51.93
2023-05-08T18:56:58.288Z,52.43
2023-05-08T18:59:26.098Z,51.54
2023-05-08T19:01:53.298Z,52.39
2023-05-08T19:04:20.752Z,52.17
2023-05-08T19:06:49.235Z,52.33
2023-05-08T19:09:16.660Z,53.26
2023-05-08T19:11:56.548Z,52.85
2023-05-08T19:14:31.092Z,52.29
2023-05-08T19:16:58.734Z,52.06
2023-05-08T19:19:26.272Z,51.98
2023-05-08T19:22:00.332Z,52.04
2023-05-08T19:24:36.545Z,52.59
2023-05-08T19:27:05.004Z,53.11
2023-05-08T19:29:34.790Z,52.69
2023-05-08T19:32:14.630Z,53.21
2023-05-08T19:34:47.418Z,53.22
2023-05-08T19:37:15.441Z,52.78
2023-05-08T19:39:43.081Z,53.11
2023-05-08T19:42:14.376Z,53.01
2023-05-08T19:44:45.424Z,52.84
2023-05-08T19:47:15.221Z,53.08
2023-05-08T19:49:42.752Z,52.36
2023-05-08T19:52:10.150Z,52.76
2023-05-08T19:54:37.329Z,52.46
2023-05-08T19:57:07.779Z,52.22
2023-05-08T19:59:35.237Z,52.14
2023-05-08T20:02:02.531Z,51.81
2023-05-08T20:04:36.059Z,51.60
2023-05-08T20:07:16.202Z,52.36
2023-05-08T20:09:43.401Z,51.48
2023-05-08T20:12:10.808Z,51.71
2023-05-08T20:14:38.116Z,51.47
2023-05-08T20:17:05.498Z,51.63
2023-05-08T20:19:32.746Z,51.52
2023-05-08T20:22:00.190Z,51.55
2023-05-08T20:24:29.991Z,51.66
2023-05-08T20:26:57.950Z,52.09
2023-05-08T20:29:25.329Z,51.99
2023-05-08T20:31:52.980Z,51.98
2023-05-08T20:34:21.928Z,52.69
2023-05-08T20:36:49.375Z,52.73
2023-05-08T20:39:16.614Z,53.10
2023-05-08T20:41:43.796Z,53.15
2023-05-08T20:44:12.534Z,53.53
2023-05-08T20:46:43.582Z,53.43
2023-05-08T20:49:10.727Z,53.96
2023-05-08T20:51:37.909Z,53.81
2023-05-08T20:54:05.154Z,54.06
2023-05-08T20:56:32.403Z,54.23
2023-05-08T20:58:59.632Z,54.45
2023-05-08T21:01:26.828Z,54.32
2023-05-08T21:03:53.931Z,54.27
2023-05-08T21:06:21.049Z,54.65
2023-05-08T21:08:48.366Z,53.96
2023-05-08T21:11:16.544Z,54.14
2023-05-08T21:13:49.232Z,54.03
2023-05-08T21:16:19.461Z,54.36
2023-05-08T21:18:46.572Z,54.52
2023-05-08T21:21:20.218Z,54.67
2023-05-08T21:23:47.347Z,54.66
2023-05-08T21:26:16.819Z,54.76
2023-05-08T21:28:43.913Z,54.48
2023-05-08T21:31:11.041Z,54.43
2023-05-08T21:33:38.181Z,54.48
2023-05-08T21:36:05.664Z,54.47
2023-05-08T21:38:32.901Z,54.12
2023-05-08T21:41:07.606Z,54.46
2023-05-08T21:43:36.345Z,54.35
2023-05-08T21:46:05.707Z,54.05
2023-05-08T21:48:33.792Z,53.89
2023-05-08T21:51:01.397Z,54.09
2023-05-08T21:53:29.696Z,53.60
2023-05-08T21:55:56.741Z,53.45
2023-05-08T21:58:23.826Z,53.93
2023-05-08T22:00:51.217Z,53.66
2023-05-08T22:03:19.373Z,53.38
2023-05-08T22:05:46.944Z,53.61
2023-05-08T22:08:14.162Z,53.61
2023-05-08T22:10:44.377Z,53.14
2023-05-08T22:13:12.741Z,53.11
2023-05-08T22:15:39.959Z,52.96
2023-05-08T22:18:07.173Z,52.71
2023-05-08T22:20:34.384Z,53.16
2023-05-08T22:23:01.388Z,52.75
2023-05-08T22:25:28.634Z,52.63
2023-05-08T22:27:55.883Z,52.40
2023-05-08T22:30:23.031Z,52.58
2023-05-08T22:32:56.516Z,52.71
2023-05-08T22:35:25.252Z,52.21
2023-05-08T22:37:53.159Z,52.39
2023-05-08T22:40:21.494Z,52.11
2023-05-08T22:42:54.280Z,51.90
2023-05-08T22:45:22.766Z,51.99
2023-05-08T22:47:49.818Z,51.85
2023-05-08T22:50:17.466Z,51.37
2023-05-08T22:52:44.775Z,50.84
2023-05-08T22:55:12.218Z,50.51
2023-05-08T22:57:39.485Z,50.23
2023-05-08T23:00:09.542Z,49.90
2023-05-08T23:02:36.606Z,49.73
2023-05-08T23:05:04.040Z,49.93
2023-05-08T23:07:31.277Z,49.41
2023-05-08T23:09:58.311Z,49.24
2023-05-08T23:12:25.567Z,49.21
2023-05-08T23:14:52.751Z,48.68
2023-05-08T23:17:19.881Z,48.21
2023-05-08T23:19:46.921Z,47.75
2023-05-08T23:22:14.043Z,47.48
2023-05-08T23:24:41.198Z,47.41
2023-05-08T23:27:08.237Z,47.71
2023-05-08T23:29:38.025Z,47.29
2023-05-08T23:32:05.158Z,47.13
2023-05-08T23:34:32.189Z,47.34
2023-05-08T23:37:00.336Z,47.25
2023-05-08T23:39:27.484Z,47.21
2023-05-08T23:41:54.661Z,47.07
2023-05-08T23:44:21.796Z,47.20
2023-05-08T23:46:49.014Z,47.34
2023-05-08T23:49:16.108Z,47.07
2023-05-08T23:51:43.187Z,47.45
2023-05-08T23:54:10.177Z,47.36
2023-05-08T23:56:37.310Z,47.37
2023-05-08T23:59:04.404Z,47.26
